Terminal Aerodrome Forecast
Issued by NWS

Home | Current Version | Previous Version | Text Only | Print | Product List | Glossary On
Versions: 1 2 3 4 5 6 7 8 9 10 11 12 13 14 15 16 17 18 19 20 21 22
078
FTUS43 KTOP 240539
TAFMHK
TAF
KMHK 240539Z 2406/2506 08007KT 4SM BR SCT250
     FM240900 13010KT 5SM BR SCT150 WS015/15035KT
     FM241400 14013KT P6SM BKN035
     FM241700 18014G22KT P6SM SCT050
     FM250000 26008KT P6SM SCT140=

USA.gov is the U.S. government's official web portal to all federal, state and local government web resources and services.